• Join FlightAware (Why Join?)
  • Login
  • US Flag 
05:03PM EDT


 

Airport Tracker/Info


-or-


 

Live Flight TrackerFlight Track Log ✈ SKW6345 ✈ 28-Apr-2013 ✈ KDFW - KLAX

Flight Track Log - Related Links

Times and Time Zones

All times are in EDT time to prevent confusion due to time zone crossing. See the SKW6345 flight status page for this flight to view local times or setup timezone preferences in your user account.

Time Position Orientation Groundspeed Altitude Reporting Facility
EDT Latitude Longitude Course Direction KTS MPH feet Rate Location/Type
02:14PM 32.8833 -97.0500 293° West 194 223 1,300  Level Dallas / Fort Worth TRACON
02:15PM 32.8167 -97.0500 180° South 231 266 3,400 1,800 Climbing Dallas / Fort Worth TRACON
02:16PM 32.7667 -97.0833 209° Southwest 261 300 5,100 2,160 Climbing Dallas / Fort Worth TRACON
02:17PM 32.7291 -97.3801 293° West  Level FlightAware Approximate
02:17PM 32.7667 -97.1667 270° West 283 326 7,800  Level Dallas / Fort Worth TRACON
02:18PM 32.7761 -97.5096 293° West  Level FlightAware Approximate
02:18PM 32.7831 -97.2800 280° West 526 605 10,400  Level Fort Worth Center
02:19PM 32.8225 -97.6396 293° West  Level FlightAware Approximate
02:19PM 32.8000 -97.3714 282° West 376 433 12,300  Level Fort Worth Center
02:20PM 32.8208 -97.4875 282° West 330 380 14,800 2,160 Climbing Fort Worth Center
02:21PM 32.8375 -97.5817 282° West 324 373 16,700 1,740 Climbing Fort Worth Center
02:22PM 32.8603 -97.7078 282° West 344 396 18,300 1,560 Climbing Fort Worth Center
02:23PM 32.8639 -97.8167 272° West 362 417 19,900 1,620 Climbing Fort Worth Center
02:24PM 32.8636 -97.9500 270° West 368 423 21,600 1,500 Climbing Fort Worth Center
02:25PM 32.8631 -98.0664 270° West 378 435 23,000 1,320 Climbing Fort Worth Center
02:26PM 32.8622 -98.2147 270° West 399 459 24,300 1,320 Climbing Fort Worth Center
02:27PM 32.8611 -98.3483 269° West 404 465 25,700 1,320 Climbing Fort Worth Center
02:28PM 32.8581 -98.4669 268° West 404 465 27,000 1,200 Climbing Fort Worth Center
02:29PM 32.8569 -98.6031 269° West 404 465 28,200 1,200 Climbing Fort Worth Center
02:30PM 32.8556 -98.7414 269° West 409 471 29,400 1,140 Climbing Fort Worth Center
02:31PM 32.8539 -98.8775 269° West 414 476 30,500 900 Climbing Fort Worth Center
02:32PM 32.8481 -99.0183 267° West 420 483 31,300 840 Climbing Fort Worth Center
02:33PM 32.8483 -99.1617 270° West 420 483 32,200 900 Climbing Fort Worth Center
02:34PM 32.8461 -99.3025 269° West 420 483 33,200 1,080 Climbing Fort Worth Center
02:35PM 32.8439 -99.4436 269° West 425 489 34,400 1,200 Climbing Fort Worth Center
02:36PM 32.8458 -99.5769 271° West 419 482 35,600 1,140 Climbing Fort Worth Center
02:37PM 32.8833 -99.6992 290° West 395 455 36,700 900 Climbing Fort Worth Center
02:38PM 32.9272 -99.8192 294° West 395 455 37,400 540 Climbing Fort Worth Center
02:39PM 32.9728 -99.9367 295° West 395 455 37,800 300 Climbing Fort Worth Center
02:40PM 33.0142 -100.0519 293° West 390 449 38,000 60 Climbing Fort Worth Center
02:41PM 33.0597 -100.1697 295° West 390 449 38,000  Level Fort Worth Center
02:42PM 33.1072 -100.2928 295° West 396 456 38,000  Level Fort Worth Center
02:43PM 33.1522 -100.4158 294° West 401 461 38,000  Level Fort Worth Center
02:44PM 33.1992 -100.5389 295° West 401 461 38,000  Level Fort Worth Center
02:45PM 33.2461 -100.6647 294° West 401 461 38,000  Level Fort Worth Center
02:46PM 33.2950 -100.7908 295° West 406 467 38,000  Level Fort Worth Center
02:47PM 33.3417 -100.9169 294° West 411 473 38,000  Level Fort Worth Center
02:48PM 33.3861 -101.0406 293° West 404 465 38,000  Level Fort Worth Center
02:49PM 33.4383 -101.1797 294° West 404 465 38,000  Level Fort Worth Center
02:50PM 33.4786 -101.2933 293° West 410 472 38,000  Level Fort Worth Center
02:51PM 33.5306 -101.4328 294° West 410 472 38,000  Level Fort Worth Center
02:52PM 33.5728 -101.5469 294° West 416 479 38,000  Level Fort Worth Center
02:53PM 33.6267 -101.6892 295° West 416 479 38,000  Level Fort Worth Center
02:54PM 33.6722 -101.8186 293° West 421 484 38,000  Level Fort Worth Center
02:55PM 33.7175 -101.9531 292° West 429 494 38,000  Level Fort Worth Center
02:56PM 33.7394 -102.0917 281° West 429 494 38,000  Level Fort Worth Center
02:58PM 33.7994 -102.4044 283° West 421 484 38,000  Level Albuquerque Center
02:59PM 33.8250 -102.5425 283° West 424 488 38,000  Level Albuquerque Center
03:00PM 33.8558 -102.7081 283° West 425 489 38,000  Level Albuquerque Center
03:01PM 33.8814 -102.8444 283° West 422 486 38,000  Level Albuquerque Center
03:02PM 33.9061 -102.9811 282° West 421 484 38,000  Level Albuquerque Center
03:03PM 33.9325 -103.1161 283° West 418 481 38,000  Level Albuquerque Center
03:04PM 33.9586 -103.2542 283° West 422 486 38,000  Level Albuquerque Center
03:06PM 33.9811 -103.3953 281° West 426 490 38,000  Level Albuquerque Center
03:07PM 34.0100 -103.5672 282° West 434 499 38,000  Level Albuquerque Center
03:08PM 34.0353 -103.7000 283° West 428 493 38,000  Level Albuquerque Center
03:09PM 34.0600 -103.8425 282° West 427 491 38,000  Level Albuquerque Center
03:10PM 34.0847 -103.9872 282° West 432 497 38,000  Level Albuquerque Center
03:11PM 34.1136 -104.1506 282° West 426 490 38,000  Level Albuquerque Center
03:12PM 34.1378 -104.2933 282° West 426 490 38,000  Level Albuquerque Center
03:13PM 34.1614 -104.4339 282° West 424 488 38,000  Level Albuquerque Center
03:14PM 34.1856 -104.5744 282° West 424 488 38,000  Level Albuquerque Center
03:15PM 34.2100 -104.7131 282° West 419 482 38,000  Level Albuquerque Center
03:16PM 34.2325 -104.8528 281° West 419 482 38,000  Level Albuquerque Center
03:17PM 34.2561 -104.9933 282° West 421 484 38,000  Level Albuquerque Center
03:18PM 34.2792 -105.1333 281° West 422 486 38,000  Level Albuquerque Center
03:19PM 34.3053 -105.2947 281° West 416 479 38,000  Level Albuquerque Center
03:20PM 34.3286 -105.4358 281° West 420 483 38,000  Level Albuquerque Center
03:21PM 34.3514 -105.5775 281° West 423 487 38,000  Level Albuquerque Center
03:22PM 34.3711 -105.7217 279° West 428 493 38,000  Level Albuquerque Center
03:23PM 34.3794 -105.8667 274° West 428 493 38,000  Level Albuquerque Center
03:24PM 34.3897 -106.0125 275° West 430 495 38,000  Level Albuquerque Center
03:25PM 34.3992 -106.1606 274° West 435 501 38,000  Level Albuquerque Center
03:26PM 34.4064 -106.3047 274° West 439 505 38,000  Level Albuquerque Center
03:27PM 34.4156 -106.4528 274° West 440 506 38,000  Level Albuquerque Center
03:28PM 34.4272 -106.6286 275° West 437 503 38,000  Level Albuquerque Center
03:29PM 34.4356 -106.7794 274° West 443 510 38,000  Level Albuquerque Center
03:30PM 34.4439 -106.9294 274° West 445 512 38,000  Level Albuquerque Center
03:31PM 34.4514 -107.0814 273° West 448 516 38,000  Level Albuquerque Center
03:32PM 34.4594 -107.2286 274° West 441 507 38,000  Level Albuquerque Center
03:33PM 34.4675 -107.3756 274° West 437 503 38,000  Level Albuquerque Center
03:34PM 34.4686 -107.5239 271° West 437 503 38,000  Level Albuquerque Center
03:35PM 34.4667 -107.6981 269° West 434 499 38,000  Level Albuquerque Center
03:37PM 34.4656 -107.8447 270° West 434 499 38,000  Level Albuquerque Center
03:38PM 34.4628 -107.9900 269° West 432 497 38,000  Level Albuquerque Center
03:39PM 34.4608 -108.1356 269° West 432 497 38,000  Level Albuquerque Center
03:40PM 34.4597 -108.2828 270° West 436 502 38,000  Level Albuquerque Center
03:41PM 34.4575 -108.4306 269° West 438 504 38,000  Level Albuquerque Center
03:42PM 34.4547 -108.6092 269° West 437 503 38,000  Level Albuquerque Center
03:43PM 34.4511 -108.7514 268° West 437 503 38,000  Level Albuquerque Center
03:44PM 34.4492 -108.8933 269° West 439 505 38,000  Level Albuquerque Center
03:45PM 34.4447 -109.0589 268° West 440 506 38,000  Level Albuquerque Center
03:46PM 34.4422 -109.2011 269° West 440 506 38,000  Level Albuquerque Center
03:47PM 34.4378 -109.3692 268° West 443 510 38,000  Level Albuquerque Center
03:48PM 34.4339 -109.5111 268° West 442 509 38,000  Level Albuquerque Center
03:49PM 34.4303 -109.6764 269° West 440 506 38,000  Level Albuquerque Center
03:50PM 34.4267 -109.8186 268° West 440 506 38,000  Level Albuquerque Center
03:51PM 34.4217 -109.9847 268° West 441 507 38,000  Level Albuquerque Center
03:52PM 34.4178 -110.1281 268° West 442 509 38,000  Level Albuquerque Center
03:53PM 34.4131 -110.2947 268° West 443 510 38,000  Level Albuquerque Center
03:54PM 34.4086 -110.4281 268° West 446 513 38,000  Level Albuquerque Center
03:55PM 34.4042 -110.5772 268° West 448 516 38,000  Level Albuquerque Center
03:56PM 34.3989 -110.7256 268° West 445 512 38,000  Level Albuquerque Center
03:58PM 34.3844 -111.0219 267° West 443 510 38,000  Level Los Angeles Center
03:59PM 34.3792 -111.1703 268° West 444 511 38,000  Level Los Angeles Center
04:00PM 34.3733 -111.3183 267° West 444 511 38,000  Level Los Angeles Center
04:01PM 34.3669 -111.4667 267° West 443 510 38,000  Level Los Angeles Center
04:02PM 34.3592 -111.6436 267° West 444 511 38,000  Level Los Angeles Center
04:03PM 34.3522 -111.8189 267° West 442 509 38,000  Level Albuquerque Center
04:04PM 34.3458 -111.9661 267° West 444 511 38,000  Level Albuquerque Center
04:05PM 34.3383 -112.1114 266° West 440 506 38,000  Level Albuquerque Center
04:06PM 34.3317 -112.2575 267° West 439 505 38,000  Level Albuquerque Center
04:08PM 34.3233 -112.4319 267° West 437 503 38,000  Level Albuquerque Center
04:09PM 34.3153 -112.5792 266° West 439 505 38,000  Level Albuquerque Center
04:10PM 34.3072 -112.7253 266° West 438 504 38,000  Level Albuquerque Center
04:11PM 34.2989 -112.8711 266° West 438 504 38,000  Level Albuquerque Center
04:12PM 34.2908 -113.0164 266° West 436 502 38,000  Level Albuquerque Center
04:13PM 34.2806 -113.1925 266° West 438 504 38,000  Level Albuquerque Center
04:14PM 34.2722 -113.3375 266° West 436 502 38,000  Level Albuquerque Center
04:15PM 34.2647 -113.4833 266° West 436 502 38,000  Level Albuquerque Center
04:16PM 34.2572 -113.6247 266° West 436 502 38,000  Level Albuquerque Center
04:17PM 34.2469 -113.7975 266° West 431 496 38,000  Level Albuquerque Center
04:18PM 34.2372 -113.9417 265° West 429 494 38,000  Level Albuquerque Center
04:19PM 34.2300 -114.0819 266° West 422 486 38,000  Level Albuquerque Center
04:20PM 34.2194 -114.2258 265° West 426 490 38,000  Level Albuquerque Center
04:21PM 34.2111 -114.3658 266° West 422 486 38,000  Level Albuquerque Center
04:22PM 34.2044 -114.4800 266° West 416 479 38,000  Level Los Angeles Center
04:23PM 34.1956 -114.6178 266° West 413 475 38,000  Level Los Angeles Center
04:24PM 34.1833 -114.7858 265° West 418 481 38,000  Level Los Angeles Center
04:25PM 34.1736 -114.9269 265° West 423 487 38,000  Level Los Angeles Center
04:26PM 34.1639 -115.0711 265° West 428 493 38,000  Level Los Angeles Center
04:27PM 34.1531 -115.2172 265° West 436 502 38,000  Level Los Angeles Center
04:28PM 34.1428 -115.3636 265° West 439 505 38,000  Level Los Angeles Center
04:29PM 34.1311 -115.5372 265° West 435 501 38,000  Level Los Angeles Center
04:30PM 34.1192 -115.6789 264° West 430 495 38,000  Level Los Angeles Center
04:31PM 34.1064 -115.8197 264° West 424 488 38,000  Level Los Angeles Center
04:32PM 34.0847 -115.9561 259° West 418 481 38,000 -960 Level Los Angeles Center
04:33PM 34.0636 -116.0953 260° West 420 483 36,100 -2,280 Descending Los Angeles Center
04:34PM 34.0431 -116.2364 260° West 428 493 33,300 -3,060 Descending Los Angeles Center
04:35PM 34.0167 -116.4103 260° West 440 506 29,800 -3,000 Descending Los Angeles Center
04:36PM 34.0006 -116.5519 262° West 432 497 27,100 -2,640 Descending Los Angeles Center
04:37PM 33.9892 -116.6919 264° West 423 487 24,400 -2,520 Descending Los Angeles Center
04:38PM 33.9775 -116.8261 264° West 411 473 21,900 -2,580 Descending Los Angeles Center
04:39PM 33.9667 -116.9333 263° West 383 441 19,800 -2,460 Descending Southern California TRACON
04:40PM 33.9500 -117.0667 261° West 390 449 17,600 -1,860 Descending Southern California TRACON
04:41PM 33.9500 -117.2000 270° West 396 456 16,100 -1,440 Descending Southern California TRACON
04:42PM 33.9333 -117.3333 261° West 384 442 14,800 -1,380 Descending Southern California TRACON
04:43PM 33.9500 -117.4500 280° West 359 413 13,400 -1,260 Descending Southern California TRACON
04:44PM 34.0000 -117.5500 301° West 310 357 12,300 -1,200 Descending Southern California TRACON
04:45PM 34.0167 -117.6500 281° West 342 394 11,000 -1,260 Descending Southern California TRACON
04:46PM 34.0000 -117.7500 259° West 294 338 9,800 -1,320 Descending Southern California TRACON
04:47PM 33.9833 -117.8333 256° West 294 338 8,500 -1,320 Descending Southern California TRACON
04:48PM 33.9833 -117.9333 270° West 290 334 7,300 -1,320 Descending Southern California TRACON
04:49PM 33.9667 -118.0167 256° West 286 329 5,900 -1,500 Descending Southern California TRACON
04:50PM 33.9667 -118.1167 270° West 250 288 4,300 -1,260 Descending Southern California TRACON
04:51PM 33.9608 -118.1608 261° West 238 274 3,700 -840 Descending Los Angeles Center